sensor_id;sensor_type;location;lat;lon;timestamp;pressure;altitude;pressure_sealevel;temperature;humidity
5298;BME280;14738;42.668;23.250;2024-02-14T00:01:21;48461.78;;;-141.90;100.00
5298;BME280;14738;42.668;23.250;2024-02-14T00:03:47;48481.63;;;-141.90;100.00
5298;BME280;14738;42.668;23.250;2024-02-14T00:06:13;48465.75;;;-141.90;100.00
5298;BME280;14738;42.668;23.250;2024-02-14T00:08:38;48465.75;;;-141.90;100.00
5298;BME280;14738;42.668;23.250;2024-02-14T00:11:03;48509.41;;;-141.90;100.00
5298;BME280;14738;42.668;23.250;2024-02-14T00:13:29;48501.47;;;-141.90;100.00
5298;BME280;14738;42.668;23.250;2024-02-14T00:15:54;48515.38;;;-141.90;100.00
5298;BME280;14738;42.668;23.250;2024-02-14T00:18:21;48521.34;;;-141.90;100.00
5298;BME280;14738;42.668;23.250;2024-02-14T00:20:48;48525.31;;;-141.90;100.00
5298;BME280;14738;42.668;23.250;2024-02-14T00:23:13;48499.50;;;-141.90;100.00
5298;BME280;14738;42.668;23.250;2024-02-14T00:25:39;48509.41;;;-141.90;100.00
5298;BME280;14738;42.668;23.250;2024-02-14T00:28:04;48531.25;;;-141.90;100.00
5298;BME280;14738;42.668;23.250;2024-02-14T00:30:31;48525.31;;;-141.90;100.00
5298;BME280;14738;42.668;23.250;2024-02-14T00:32:56;48525.31;;;-141.90;100.00
5298;BME280;14738;42.668;23.250;2024-02-14T00:35:21;48511.41;;;-141.90;100.00
5298;BME280;14738;42.668;23.250;2024-02-14T00:37:47;48493.53;;;-141.90;100.00
5298;BME280;14738;42.668;23.250;2024-02-14T00:40:13;48499.50;;;-141.90;100.00
5298;BME280;14738;42.668;23.250;2024-02-14T00:42:39;48489.56;;;-141.90;100.00
5298;BME280;14738;42.668;23.250;2024-02-14T00:45:06;48479.63;;;-141.90;100.00
5298;BME280;14738;42.668;23.250;2024-02-14T00:47:34;48489.56;;;-141.90;100.00
5298;BME280;14738;42.668;23.250;2024-02-14T00:50:00;48519.34;;;-141.90;100.00
5298;BME280;14738;42.668;23.250;2024-02-14T00:52:25;48523.31;;;-141.90;100.00
5298;BME280;14738;42.668;23.250;2024-02-14T00:54:51;48493.53;;;-141.90;100.00
5298;BME280;14738;42.668;23.250;2024-02-14T00:57:16;48489.56;;;-141.90;100.00
5298;BME280;14738;42.668;23.250;2024-02-14T00:59:43;48489.56;;;-141.90;100.00
5298;BME280;14738;42.668;23.250;2024-02-14T01:02:08;48487.56;;;-141.90;100.00
5298;BME280;14738;42.668;23.250;2024-02-14T01:04:34;48473.69;;;-141.90;100.00
5298;BME280;14738;42.668;23.250;2024-02-14T01:07:02;48501.47;;;-141.90;100.00
5298;BME280;14738;42.668;23.250;2024-02-14T01:09:27;48505.44;;;-141.90;100.00
5298;BME280;14738;42.668;23.250;2024-02-14T01:11:53;48491.56;;;-141.90;100.00
5298;BME280;14738;42.668;23.250;2024-02-14T01:14:18;48485.59;;;-141.90;100.00
5298;BME280;14738;42.668;23.250;2024-02-14T01:16:44;48487.56;;;-141.90;100.00
5298;BME280;14738;42.668;23.250;2024-02-14T01:19:10;48513.38;;;-141.90;100.00
5298;BME280;14738;42.668;23.250;2024-02-14T01:21:36;48495.53;;;-141.90;100.00
5298;BME280;14738;42.668;23.250;2024-02-14T01:24:01;48503.47;;;-141.90;100.00
5298;BME280;14738;42.668;23.250;2024-02-14T01:26:27;48471.69;;;-141.90;100.00
5298;BME280;14738;42.668;23.250;2024-02-14T01:28:52;48477.66;;;-141.90;100.00
5298;BME280;14738;42.668;23.250;2024-02-14T01:31:18;48501.47;;;-141.90;100.00
5298;BME280;14738;42.668;23.250;2024-02-14T01:33:45;48489.56;;;-141.90;100.00
5298;BME280;14738;42.668;23.250;2024-02-14T01:36:11;48511.41;;;-141.90;100.00
5298;BME280;14738;42.668;23.250;2024-02-14T01:38:36;48485.59;;;-141.90;100.00
5298;BME280;14738;42.668;23.250;2024-02-14T01:41:05;48513.38;;;-141.90;100.00
5298;BME280;14738;42.668;23.250;2024-02-14T01:43:31;48511.41;;;-141.90;100.00
5298;BME280;14738;42.668;23.250;2024-02-14T01:46:06;48541.19;;;-141.90;100.00
5298;BME280;14738;42.668;23.250;2024-02-14T01:48:32;48519.34;;;-141.90;100.00
5298;BME280;14738;42.668;23.250;2024-02-14T01:51:00;48515.38;;;-141.90;100.00
5298;BME280;14738;42.668;23.250;2024-02-14T01:53:27;48497.50;;;-141.90;100.00
5298;BME280;14738;42.668;23.250;2024-02-14T01:55:55;48501.47;;;-141.90;100.00
5298;BME280;14738;42.668;23.250;2024-02-14T01:58:21;48513.38;;;-141.90;100.00
5298;BME280;14738;42.668;23.250;2024-02-14T02:00:47;48493.53;;;-141.90;100.00
5298;BME280;14738;42.668;23.250;2024-02-14T02:03:13;48493.53;;;-141.90;100.00
5298;BME280;14738;42.668;23.250;2024-02-14T02:05:38;48517.34;;;-141.90;100.00
5298;BME280;14738;42.668;23.250;2024-02-14T02:08:04;48481.63;;;-141.90;100.00
5298;BME280;14738;42.668;23.250;2024-02-14T02:10:29;48497.50;;;-141.90;100.00
5298;BME280;14738;42.668;23.250;2024-02-14T02:12:58;48501.47;;;-141.90;100.00
5298;BME280;14738;42.668;23.250;2024-02-14T02:15:25;48485.59;;;-141.90;100.00
5298;BME280;14738;42.668;23.250;2024-02-14T02:17:50;48493.53;;;-141.90;100.00
5298;BME280;14738;42.668;23.250;2024-02-14T02:20:18;48517.34;;;-141.90;100.00
5298;BME280;14738;42.668;23.250;2024-02-14T02:22:47;48527.28;;;-141.90;100.00
5298;BME280;14738;42.668;23.250;2024-02-14T02:25:13;48517.34;;;-141.90;100.00
5298;BME280;14738;42.668;23.250;2024-02-14T02:27:39;48521.34;;;-141.90;100.00
5298;BME280;14738;42.668;23.250;2024-02-14T02:30:05;48497.50;;;-141.90;100.00
5298;BME280;14738;42.668;23.250;2024-02-14T02:32:31;48497.50;;;-141.90;100.00
5298;BME280;14738;42.668;23.250;2024-02-14T02:34:56;48525.31;;;-141.90;100.00
5298;BME280;14738;42.668;23.250;2024-02-14T02:37:23;48521.34;;;-141.90;100.00
5298;BME280;14738;42.668;23.250;2024-02-14T02:39:48;48493.53;;;-141.90;100.00
5298;BME280;14738;42.668;23.250;2024-02-14T02:42:14;48499.50;;;-141.90;100.00
5298;BME280;14738;42.668;23.250;2024-02-14T02:44:39;48513.38;;;-141.90;100.00
5298;BME280;14738;42.668;23.250;2024-02-14T02:47:05;48529.28;;;-141.90;100.00
5298;BME280;14738;42.668;23.250;2024-02-14T02:49:30;48503.47;;;-141.90;100.00
5298;BME280;14738;42.668;23.250;2024-02-14T02:51:56;48499.50;;;-141.90;100.00
5298;BME280;14738;42.668;23.250;2024-02-14T02:54:21;48519.34;;;-141.90;100.00
5298;BME280;14738;42.668;23.250;2024-02-14T02:56:49;48479.63;;;-141.90;100.00
5298;BME280;14738;42.668;23.250;2024-02-14T02:59:15;48501.47;;;-141.90;100.00
5298;BME280;14738;42.668;23.250;2024-02-14T03:01:51;48507.44;;;-141.90;100.00
5298;BME280;14738;42.668;23.250;2024-02-14T03:04:16;48517.34;;;-141.90;100.00
5298;BME280;14738;42.668;23.250;2024-02-14T03:06:41;48531.25;;;-141.90;100.00
5298;BME280;14738;42.668;23.250;2024-02-14T03:09:08;48509.41;;;-141.90;100.00
5298;BME280;14738;42.668;23.250;2024-02-14T03:11:34;48501.47;;;-141.90;100.00
5298;BME280;14738;42.668;23.250;2024-02-14T03:14:01;48485.59;;;-141.90;100.00
5298;BME280;14738;42.668;23.250;2024-02-14T03:16:27;48537.22;;;-141.90;100.00
5298;BME280;14738;42.668;23.250;2024-02-14T03:18:52;48515.38;;;-141.90;100.00
5298;BME280;14738;42.668;23.250;2024-02-14T03:21:18;48513.38;;;-141.90;100.00
5298;BME280;14738;42.668;23.250;2024-02-14T03:23:44;48515.38;;;-141.90;100.00
5298;BME280;14738;42.668;23.250;2024-02-14T03:26:11;48509.41;;;-141.90;100.00
5298;BME280;14738;42.668;23.250;2024-02-14T03:28:36;48489.56;;;-141.90;100.00
5298;BME280;14738;42.668;23.250;2024-02-14T03:31:01;48479.63;;;-141.90;100.00
5298;BME280;14738;42.668;23.250;2024-02-14T03:33:27;48547.13;;;-141.90;100.00
5298;BME280;14738;42.668;23.250;2024-02-14T03:35:54;48529.28;;;-141.90;100.00
5298;BME280;14738;42.668;23.250;2024-02-14T03:38:28;48499.50;;;-141.90;100.00
5298;BME280;14738;42.668;23.250;2024-02-14T03:40:54;48529.28;;;-141.90;100.00
5298;BME280;14738;42.668;23.250;2024-02-14T03:43:20;48519.34;;;-141.90;100.00
5298;BME280;14738;42.668;23.250;2024-02-14T03:45:47;48497.50;;;-141.90;100.00
5298;BME280;14738;42.668;23.250;2024-02-14T03:48:12;48513.38;;;-141.90;100.00
5298;BME280;14738;42.668;23.250;2024-02-14T03:50:41;48521.34;;;-141.90;100.00
5298;BME280;14738;42.668;23.250;2024-02-14T03:53:08;48489.56;;;-141.90;100.00
5298;BME280;14738;42.668;23.250;2024-02-14T03:55:36;48517.34;;;-141.90;100.00
5298;BME280;14738;42.668;23.250;2024-02-14T03:58:01;48521.34;;;-141.90;100.00
5298;BME280;14738;42.668;23.250;2024-02-14T04:00:28;48513.38;;;-141.90;100.00
5298;BME280;14738;42.668;23.250;2024-02-14T04:02:55;48485.59;;;-141.90;100.00
5298;BME280;14738;42.668;23.250;2024-02-14T04:05:24;48521.34;;;-141.90;100.00
5298;BME280;14738;42.668;23.250;2024-02-14T04:07:49;48501.47;;;-141.90;100.00
5298;BME280;14738;42.668;23.250;2024-02-14T04:10:17;48491.56;;;-141.90;100.00
5298;BME280;14738;42.668;23.250;2024-02-14T04:12:42;48485.59;;;-141.90;100.00
5298;BME280;14738;42.668;23.250;2024-02-14T04:15:08;48483.59;;;-141.90;100.00
5298;BME280;14738;42.668;23.250;2024-02-14T04:17:34;48515.38;;;-141.90;100.00
5298;BME280;14738;42.668;23.250;2024-02-14T04:19:59;48501.47;;;-141.90;100.00
5298;BME280;14738;42.668;23.250;2024-02-14T04:22:25;48531.25;;;-141.90;100.00
5298;BME280;14738;42.668;23.250;2024-02-14T04:24:50;48533.25;;;-141.90;100.00
5298;BME280;14738;42.668;23.250;2024-02-14T04:27:15;48513.38;;;-141.90;100.00
5298;BME280;14738;42.668;23.250;2024-02-14T04:29:45;48513.38;;;-141.90;100.00
5298;BME280;14738;42.668;23.250;2024-02-14T04:32:10;48521.34;;;-141.90;100.00
5298;BME280;14738;42.668;23.250;2024-02-14T04:34:36;48503.47;;;-141.90;100.00
5298;BME280;14738;42.668;23.250;2024-02-14T04:37:04;48481.63;;;-141.90;100.00
5298;BME280;14738;42.668;23.250;2024-02-14T04:39:35;48545.16;;;-141.90;100.00
5298;BME280;14738;42.668;23.250;2024-02-14T04:42:01;48515.38;;;-141.90;100.00
5298;BME280;14738;42.668;23.250;2024-02-14T04:44:28;48517.34;;;-141.90;100.00
5298;BME280;14738;42.668;23.250;2024-02-14T04:46:53;48509.41;;;-141.90;100.00
5298;BME280;14738;42.668;23.250;2024-02-14T04:49:18;48529.28;;;-141.90;100.00
5298;BME280;14738;42.668;23.250;2024-02-14T04:55:07;48517.34;;;-141.90;100.00
5298;BME280;14738;42.668;23.250;2024-02-14T04:57:32;48535.22;;;-141.90;100.00
5298;BME280;14738;42.668;23.250;2024-02-14T05:00:00;48503.47;;;-141.90;100.00
5298;BME280;14738;42.668;23.250;2024-02-14T05:02:26;48513.38;;;-141.90;100.00
5298;BME280;14738;42.668;23.250;2024-02-14T05:04:51;48513.38;;;-141.90;100.00
5298;BME280;14738;42.668;23.250;2024-02-14T05:07:17;48477.66;;;-141.90;100.00
5298;BME280;14738;42.668;23.250;2024-02-14T05:09:42;48505.44;;;-141.90;100.00
5298;BME280;14738;42.668;23.250;2024-02-14T05:12:09;48501.47;;;-141.90;100.00
5298;BME280;14738;42.668;23.250;2024-02-14T05:14:37;48527.28;;;-141.90;100.00
5298;BME280;14738;42.668;23.250;2024-02-14T05:17:03;48483.59;;;-141.90;100.00
5298;BME280;14738;42.668;23.250;2024-02-14T05:19:30;48497.50;;;-141.90;100.00
5298;BME280;14738;42.668;23.250;2024-02-14T05:21:55;48509.41;;;-141.90;100.00
5298;BME280;14738;42.668;23.250;2024-02-14T05:24:21;48537.22;;;-141.90;100.00
5298;BME280;14738;42.668;23.250;2024-02-14T05:26:46;48503.47;;;-141.90;100.00
5298;BME280;14738;42.668;23.250;2024-02-14T05:29:12;48529.28;;;-141.90;100.00
5298;BME280;14738;42.668;23.250;2024-02-14T05:38:22;48533.25;;;-141.90;100.00
5298;BME280;14738;42.668;23.250;2024-02-14T05:40:48;48513.38;;;-141.90;100.00
5298;BME280;14738;42.668;23.250;2024-02-14T05:43:14;48513.38;;;-141.90;100.00
5298;BME280;14738;42.668;23.250;2024-02-14T05:45:40;48517.34;;;-141.90;100.00
5298;BME280;14738;42.668;23.250;2024-02-14T05:48:07;48513.38;;;-141.90;100.00
5298;BME280;14738;42.668;23.250;2024-02-14T05:50:33;48523.31;;;-141.90;100.00
5298;BME280;14738;42.668;23.250;2024-02-14T05:52:58;48489.56;;;-141.90;100.00
5298;BME280;14738;42.668;23.250;2024-02-14T05:55:24;48477.66;;;-141.90;100.00
5298;BME280;14738;42.668;23.250;2024-02-14T05:57:52;48529.28;;;-141.90;100.00
5298;BME280;14738;42.668;23.250;2024-02-14T06:00:19;48523.31;;;-141.90;100.00
5298;BME280;14738;42.668;23.250;2024-02-14T06:02:45;48493.53;;;-141.90;100.00
5298;BME280;14738;42.668;23.250;2024-02-14T06:05:11;48521.34;;;-141.90;100.00
5298;BME280;14738;42.668;23.250;2024-02-14T06:07:37;48517.34;;;-141.90;100.00
5298;BME280;14738;42.668;23.250;2024-02-14T06:10:02;48521.34;;;-141.90;100.00
5298;BME280;14738;42.668;23.250;2024-02-14T06:12:28;48511.41;;;-141.90;100.00
5298;BME280;14738;42.668;23.250;2024-02-14T06:14:55;48501.47;;;-141.90;100.00
5298;BME280;14738;42.668;23.250;2024-02-14T06:17:20;48481.63;;;-141.90;100.00
5298;BME280;14738;42.668;23.250;2024-02-14T06:19:45;48517.34;;;-141.90;100.00
5298;BME280;14738;42.668;23.250;2024-02-14T06:22:11;48497.50;;;-141.90;100.00
5298;BME280;14738;42.668;23.250;2024-02-14T06:24:36;48501.47;;;-141.90;100.00
5298;BME280;14738;42.668;23.250;2024-02-14T06:27:06;48489.56;;;-141.90;100.00
5298;BME280;14738;42.668;23.250;2024-02-14T06:29:32;48499.50;;;-141.90;100.00
5298;BME280;14738;42.668;23.250;2024-02-14T06:31:57;48525.31;;;-141.90;100.00
5298;BME280;14738;42.668;23.250;2024-02-14T06:34:23;48513.38;;;-141.90;100.00
5298;BME280;14738;42.668;23.250;2024-02-14T06:36:48;48531.25;;;-141.90;100.00
5298;BME280;14738;42.668;23.250;2024-02-14T06:39:13;48497.50;;;-141.90;100.00
5298;BME280;14738;42.668;23.250;2024-02-14T06:41:39;48497.50;;;-141.90;100.00
5298;BME280;14738;42.668;23.250;2024-02-14T06:44:05;48521.34;;;-141.90;100.00
5298;BME280;14738;42.668;23.250;2024-02-14T06:46:31;48519.34;;;-141.90;100.00
5298;BME280;14738;42.668;23.250;2024-02-14T06:48:56;48501.47;;;-141.90;100.00
5298;BME280;14738;42.668;23.250;2024-02-14T06:51:22;48521.34;;;-141.90;100.00
5298;BME280;14738;42.668;23.250;2024-02-14T06:53:49;48525.31;;;-141.90;100.00
5298;BME280;14738;42.668;23.250;2024-02-14T06:56:14;48503.47;;;-141.90;100.00
5298;BME280;14738;42.668;23.250;2024-02-14T06:58:40;48501.47;;;-141.90;100.00
5298;BME280;14738;42.668;23.250;2024-02-14T07:01:05;48519.34;;;-141.90;100.00
5298;BME280;14738;42.668;23.250;2024-02-14T07:03:30;48497.50;;;-141.90;100.00
5298;BME280;14738;42.668;23.250;2024-02-14T07:05:56;48533.25;;;-141.90;100.00
5298;BME280;14738;42.668;23.250;2024-02-14T07:08:22;48487.56;;;-141.90;100.00
5298;BME280;14738;42.668;23.250;2024-02-14T07:10:49;48529.28;;;-141.90;100.00
5298;BME280;14738;42.668;23.250;2024-02-14T07:13:14;48511.41;;;-141.90;100.00
5298;BME280;14738;42.668;23.250;2024-02-14T07:15:39;48489.56;;;-141.90;100.00
5298;BME280;14738;42.668;23.250;2024-02-14T07:18:05;48509.41;;;-141.90;100.00
5298;BME280;14738;42.668;23.250;2024-02-14T07:20:30;48507.44;;;-141.90;100.00
5298;BME280;14738;42.668;23.250;2024-02-14T07:22:56;48517.34;;;-141.90;100.00
5298;BME280;14738;42.668;23.250;2024-02-14T07:25:22;48509.41;;;-141.90;100.00
5298;BME280;14738;42.668;23.250;2024-02-14T07:27:48;48529.28;;;-141.90;100.00
5298;BME280;14738;42.668;23.250;2024-02-14T07:30:15;48499.50;;;-141.90;100.00
5298;BME280;14738;42.668;23.250;2024-02-14T07:32:42;48517.34;;;-141.90;100.00
5298;BME280;14738;42.668;23.250;2024-02-14T07:35:07;48521.34;;;-141.90;100.00
5298;BME280;14738;42.668;23.250;2024-02-14T07:37:33;48513.38;;;-141.90;100.00
5298;BME280;14738;42.668;23.250;2024-02-14T07:39:58;48513.38;;;-141.90;100.00
5298;BME280;14738;42.668;23.250;2024-02-14T07:42:23;48525.31;;;-141.90;100.00
5298;BME280;14738;42.668;23.250;2024-02-14T07:44:49;48477.66;;;-141.90;100.00
5298;BME280;14738;42.668;23.250;2024-02-14T07:47:14;48489.56;;;-141.90;100.00
5298;BME280;14738;42.668;23.250;2024-02-14T08:20:38;48467.72;;;-141.90;100.00
5298;BME280;14738;42.668;23.250;2024-02-14T08:23:03;48521.34;;;-141.90;100.00
5298;BME280;14738;42.668;23.250;2024-02-14T08:25:29;48509.41;;;-141.90;100.00
5298;BME280;14738;42.668;23.250;2024-02-14T08:49:48;48493.53;;;-141.90;100.00
5298;BME280;14738;42.668;23.250;2024-02-14T08:52:14;48469.72;;;-141.90;100.00
5298;BME280;14738;42.668;23.250;2024-02-14T08:54:39;48497.50;;;-141.90;100.00
5298;BME280;14738;42.668;23.250;2024-02-14T08:57:05;48495.53;;;-141.90;100.00
5298;BME280;14738;42.668;23.250;2024-02-14T09:49:18;48511.41;;;-141.90;100.00
5298;BME280;14738;42.668;23.250;2024-02-14T09:51:45;48513.38;;;-141.90;100.00
5298;BME280;14738;42.668;23.250;2024-02-14T09:54:12;48481.63;;;-141.90;100.00
5298;BME280;14738;42.668;23.250;2024-02-14T09:56:37;48511.41;;;-141.90;100.00
5298;BME280;14738;42.668;23.250;2024-02-14T09:59:04;48519.34;;;-141.90;100.00
5298;BME280;14738;42.668;23.250;2024-02-14T10:01:31;48511.41;;;-141.90;100.00
5298;BME280;14738;42.668;23.250;2024-02-14T10:03:56;48499.50;;;-141.90;100.00
5298;BME280;14738;42.668;23.250;2024-02-14T10:06:22;48473.69;;;-141.90;100.00
5298;BME280;14738;42.668;23.250;2024-02-14T10:08:49;48485.59;;;-141.90;100.00
5298;BME280;14738;42.668;23.250;2024-02-14T10:11:16;48541.19;;;-141.90;100.00
5298;BME280;14738;42.668;23.250;2024-02-14T10:13:44;48525.31;;;-141.90;98.83
5298;BME280;14738;42.668;23.250;2024-02-14T10:16:11;48517.34;;;-141.90;98.27
5298;BME280;14738;42.668;23.250;2024-02-14T10:18:38;48497.50;;;-141.90;100.00
5298;BME280;14738;42.668;23.250;2024-02-14T10:21:04;48509.41;;;-141.90;100.00
5298;BME280;14738;42.668;23.250;2024-02-14T10:31:46;48509.41;;;-141.90;100.00
5298;BME280;14738;42.668;23.250;2024-02-14T10:34:12;48501.47;;;-141.90;99.03
5298;BME280;14738;42.668;23.250;2024-02-14T10:36:37;48489.56;;;-141.90;100.00
5298;BME280;14738;42.668;23.250;2024-02-14T10:39:06;48489.56;;;-141.90;96.34
5298;BME280;14738;42.668;23.250;2024-02-14T11:37:54;48475.66;;;-141.90;100.00
5298;BME280;14738;42.668;23.250;2024-02-14T11:40:19;48497.50;;;-141.90;100.00
5298;BME280;14738;42.668;23.250;2024-02-14T11:42:46;48493.53;;;-141.90;100.00
5298;BME280;14738;42.668;23.250;2024-02-14T11:45:13;48503.47;;;-141.90;100.00
5298;BME280;14738;42.668;23.250;2024-02-14T12:33:12;48519.34;;;-141.90;100.00
5298;BME280;14738;42.668;23.250;2024-02-14T12:35:42;48497.50;;;-141.90;100.00
5298;BME280;14738;42.668;23.250;2024-02-14T12:38:11;48495.53;;;-141.90;100.00
5298;BME280;14738;42.668;23.250;2024-02-14T14:13:18;48509.41;;;-141.90;47.36
5298;BME280;14738;42.668;23.250;2024-02-14T14:15:43;48499.50;;;-141.90;47.37
5298;BME280;14738;42.668;23.250;2024-02-14T14:18:09;48501.47;;;-141.90;47.72
5298;BME280;14738;42.668;23.250;2024-02-14T14:20:35;48517.34;;;-141.90;47.78
5298;BME280;14738;42.668;23.250;2024-02-14T14:57:50;48473.69;;;-141.90;46.96
5298;BME280;14738;42.668;23.250;2024-02-14T15:00:17;48469.72;;;-141.90;45.84
5298;BME280;14738;42.668;23.250;2024-02-14T15:02:43;48489.56;;;-141.90;46.37
5298;BME280;14738;42.668;23.250;2024-02-14T15:05:10;48481.63;;;-141.90;46.10
5298;BME280;14738;42.668;23.250;2024-02-14T15:07:37;48493.53;;;-141.90;46.37
5298;BME280;14738;42.668;23.250;2024-02-14T15:10:03;48493.53;;;-141.90;46.57
5298;BME280;14738;42.668;23.250;2024-02-14T15:12:30;48485.59;;;-141.90;46.35
5298;BME280;14738;42.668;23.250;2024-02-14T15:14:55;48497.50;;;-141.90;46.37
5298;BME280;14738;42.668;23.250;2024-02-14T15:17:21;48481.63;;;-141.90;46.52
5298;BME280;14738;42.668;23.250;2024-02-14T15:19:48;48497.50;;;-141.90;46.41
5298;BME280;14738;42.668;23.250;2024-02-14T15:22:13;48493.53;;;-141.90;46.47
5298;BME280;14738;42.668;23.250;2024-02-14T15:24:39;48499.50;;;-141.90;45.50
5298;BME280;14738;42.668;23.250;2024-02-14T15:27:10;48495.53;;;-141.90;45.54
5298;BME280;14738;42.668;23.250;2024-02-14T15:29:37;48485.59;;;-141.90;45.66
5298;BME280;14738;42.668;23.250;2024-02-14T15:32:21;48473.69;;;-141.90;45.90
5298;BME280;14738;42.668;23.250;2024-02-14T16:50:41;48491.56;;;-141.90;46.42
5298;BME280;14738;42.668;23.250;2024-02-14T16:53:07;48481.63;;;-141.90;47.78
5298;BME280;14738;42.668;23.250;2024-02-14T16:55:33;48517.34;;;-141.90;47.51
5298;BME280;14738;42.668;23.250;2024-02-14T16:57:58;48521.34;;;-141.90;48.09
5298;BME280;14738;42.668;23.250;2024-02-14T17:02:51;48521.34;;;-141.90;47.15
5298;BME280;14738;42.668;23.250;2024-02-14T17:05:17;48495.53;;;-141.90;47.25
5298;BME280;14738;42.668;23.250;2024-02-14T17:07:42;48503.47;;;-141.90;46.89
5298;BME280;14738;42.668;23.250;2024-02-14T17:10:09;48525.31;;;-141.90;46.99
5298;BME280;14738;42.668;23.250;2024-02-14T17:12:34;48499.50;;;-141.90;47.23
5298;BME280;14738;42.668;23.250;2024-02-14T17:15:00;48503.47;;;-141.90;46.64
5298;BME280;14738;42.668;23.250;2024-02-14T17:17:25;48519.34;;;-141.90;46.64
5298;BME280;14738;42.668;23.250;2024-02-14T17:19:51;48511.41;;;-141.90;47.01
5298;BME280;14738;42.668;23.250;2024-02-14T17:22:16;48487.56;;;-141.90;46.61
5298;BME280;14738;42.668;23.250;2024-02-14T17:24:42;48517.34;;;-141.90;46.96
5298;BME280;14738;42.668;23.250;2024-02-14T17:27:10;48519.34;;;-141.90;46.70
5298;BME280;14738;42.668;23.250;2024-02-14T17:29:35;48517.34;;;-141.90;46.20
5298;BME280;14738;42.668;23.250;2024-02-14T18:30:50;48489.56;;;-141.90;46.88
5298;BME280;14738;42.668;23.250;2024-02-14T18:33:15;48495.53;;;-141.90;46.79
5298;BME280;14738;42.668;23.250;2024-02-14T18:35:41;48527.28;;;-141.90;46.94
5298;BME280;14738;42.668;23.250;2024-02-14T18:38:08;48509.41;;;-141.90;46.99
5298;BME280;14738;42.668;23.250;2024-02-14T18:40:34;48489.56;;;-141.90;47.36
5298;BME280;14738;42.668;23.250;2024-02-14T18:45:25;48469.72;;;-141.90;46.46
5298;BME280;14738;42.668;23.250;2024-02-14T18:47:50;48511.41;;;-141.90;46.55
5298;BME280;14738;42.668;23.250;2024-02-14T18:50:16;48503.47;;;-141.90;46.93
5298;BME280;14738;42.668;23.250;2024-02-14T18:52:42;48481.63;;;-141.90;46.96
5298;BME280;14738;42.668;23.250;2024-02-14T18:55:07;48521.34;;;-141.90;46.85
5298;BME280;14738;42.668;23.250;2024-02-14T18:57:33;48531.25;;;-141.90;47.48
5298;BME280;14738;42.668;23.250;2024-02-14T18:59:58;48509.41;;;-141.90;47.21
5298;BME280;14738;42.668;23.250;2024-02-14T19:02:24;48513.38;;;-141.90;47.10
5298;BME280;14738;42.668;23.250;2024-02-14T19:04:50;48511.41;;;-141.90;47.56
5298;BME280;14738;42.668;23.250;2024-02-14T19:07:16;48517.34;;;-141.90;47.86
5298;BME280;14738;42.668;23.250;2024-02-14T19:28:59;48483.59;;;-141.90;47.80
5298;BME280;14738;42.668;23.250;2024-02-14T19:31:24;48509.41;;;-141.90;47.31
5298;BME280;14738;42.668;23.250;2024-02-14T19:33:50;48531.25;;;-141.90;47.28
5298;BME280;14738;42.668;23.250;2024-02-14T19:36:15;48521.34;;;-141.90;47.19
5298;BME280;14738;42.668;23.250;2024-02-14T19:38:41;48513.38;;;-141.90;47.82
5298;BME280;14738;42.668;23.250;2024-02-14T19:41:07;48541.19;;;-141.90;47.70
5298;BME280;14738;42.668;23.250;2024-02-14T19:43:32;48519.34;;;-141.90;47.87
5298;BME280;14738;42.668;23.250;2024-02-14T19:45:58;48574.94;;;-141.90;47.65
5298;BME280;14738;42.668;23.250;2024-02-14T19:48:23;48511.41;;;-141.90;48.15
5298;BME280;14738;42.668;23.250;2024-02-14T19:50:53;48529.28;;;-141.90;48.08
5298;BME280;14738;42.668;23.250;2024-02-14T19:53:19;48513.38;;;-141.90;47.81
5298;BME280;14738;42.668;23.250;2024-02-14T19:55:44;48523.31;;;-141.90;48.20
5298;BME280;14738;42.668;23.250;2024-02-14T19:58:10;48541.19;;;-141.90;48.01
5298;BME280;14738;42.668;23.250;2024-02-14T20:00:35;48517.34;;;-141.90;47.56
5298;BME280;14738;42.668;23.250;2024-02-14T20:03:01;48507.44;;;-141.90;48.01
5298;BME280;14738;42.668;23.250;2024-02-14T20:05:27;48525.31;;;-141.90;48.17
5298;BME280;14738;42.668;23.250;2024-02-14T20:07:54;48545.16;;;-141.90;48.31
5298;BME280;14738;42.668;23.250;2024-02-14T20:10:19;48523.31;;;-141.90;48.56
5298;BME280;14738;42.668;23.250;2024-02-14T20:12:44;48529.28;;;-141.90;48.99
5298;BME280;14738;42.668;23.250;2024-02-14T20:15:10;48521.34;;;-141.90;49.14
5298;BME280;14738;42.668;23.250;2024-02-14T20:17:38;48553.09;;;-141.90;48.87
5298;BME280;14738;42.668;23.250;2024-02-14T20:20:04;48531.25;;;-141.90;49.08
5298;BME280;14738;42.668;23.250;2024-02-14T20:22:31;48511.41;;;-141.90;49.56
5298;BME280;14738;42.668;23.250;2024-02-14T20:24:58;48537.22;;;-141.90;49.68
5298;BME280;14738;42.668;23.250;2024-02-14T20:27:24;48555.09;;;-141.90;49.08
5298;BME280;14738;42.668;23.250;2024-02-14T20:29:50;48517.34;;;-141.90;49.45
5298;BME280;14738;42.668;23.250;2024-02-14T20:32:16;48529.28;;;-141.90;49.86
5298;BME280;14738;42.668;23.250;2024-02-14T20:34:42;48515.38;;;-141.90;49.24
5298;BME280;14738;42.668;23.250;2024-02-14T20:37:10;48497.50;;;-141.90;49.14
5298;BME280;14738;42.668;23.250;2024-02-14T20:39:37;48505.44;;;-141.90;49.57
5298;BME280;14738;42.668;23.250;2024-02-14T20:42:06;48529.28;;;-141.90;49.43
5298;BME280;14738;42.668;23.250;2024-02-14T20:44:32;48525.31;;;-141.90;49.81
5298;BME280;14738;42.668;23.250;2024-02-14T20:46:58;48545.16;;;-141.90;49.44
5298;BME280;14738;42.668;23.250;2024-02-14T20:49:24;48527.28;;;-141.90;49.43
5298;BME280;14738;42.668;23.250;2024-02-14T20:51:52;48501.47;;;-141.90;49.32
5298;BME280;14738;42.668;23.250;2024-02-14T20:54:17;48527.28;;;-141.90;48.99
5298;BME280;14738;42.668;23.250;2024-02-14T20:56:43;48537.22;;;-141.90;48.96